createdAt,value
2023-04-19T00:00:09.301Z,13.80
2023-04-19T00:02:39.968Z,13.80
2023-04-19T00:05:11.990Z,13.80
2023-04-19T00:07:40.436Z,13.80
2023-04-19T00:10:09.757Z,13.80
2023-04-19T00:12:37.891Z,13.80
2023-04-19T00:15:08.572Z,13.80
2023-04-19T00:17:36.625Z,13.80
2023-04-19T00:20:05.888Z,13.80
2023-04-19T00:22:33.913Z,13.70
2023-04-19T00:25:02.846Z,13.80
2023-04-19T00:27:30.805Z,13.80
2023-04-19T00:29:58.818Z,13.80
2023-04-19T00:32:28.246Z,13.80
2023-04-19T00:34:56.294Z,13.70
2023-04-19T00:37:24.295Z,13.70
2023-04-19T00:39:52.282Z,13.70
2023-04-19T00:42:20.212Z,13.70
2023-04-19T00:44:48.330Z,13.70
2023-04-19T00:47:17.220Z,13.60
2023-04-19T00:49:48.236Z,13.60
2023-04-19T00:52:17.678Z,13.60
2023-04-19T00:54:47.263Z,13.60
2023-04-19T00:57:16.627Z,13.60
2023-04-19T00:59:44.851Z,13.60
2023-04-19T01:02:13.002Z,13.60
2023-04-19T01:04:41.132Z,13.60
2023-04-19T01:07:10.532Z,13.60
2023-04-19T01:09:41.933Z,13.60
2023-04-19T01:12:09.925Z,13.60
2023-04-19T01:14:37.928Z,13.50
2023-04-19T01:17:05.949Z,13.50
2023-04-19T01:19:34.860Z,13.50
2023-04-19T01:22:04.051Z,13.50
2023-04-19T01:24:33.454Z,13.60
2023-04-19T01:27:02.179Z,13.60
2023-04-19T01:29:30.315Z,13.50
2023-04-19T01:31:58.262Z,13.60
2023-04-19T01:34:28.297Z,13.50
2023-04-19T01:36:56.341Z,13.50
2023-04-19T01:39:26.524Z,13.50
2023-04-19T01:41:55.881Z,13.50
2023-04-19T01:44:23.847Z,13.60
2023-04-19T01:46:51.866Z,13.50
2023-04-19T01:49:19.862Z,13.50
2023-04-19T01:51:47.835Z,13.50
2023-04-19T01:54:16.059Z,13.50
2023-04-19T01:56:44.335Z,13.50
2023-04-19T01:59:13.685Z,13.40
2023-04-19T02:01:41.708Z,13.40
2023-04-19T02:04:10.274Z,13.40
2023-04-19T02:06:38.417Z,13.40
2023-04-19T02:09:06.457Z,13.30
2023-04-19T02:11:34.499Z,13.30
2023-04-19T02:14:02.664Z,13.30
2023-04-19T02:16:33.811Z,13.30
2023-04-19T02:19:04.072Z,13.30
2023-04-19T02:21:32.772Z,13.20
2023-04-19T02:24:01.100Z,13.20
2023-04-19T02:26:29.211Z,13.20
2023-04-19T02:28:57.180Z,13.20
2023-04-19T02:31:25.232Z,13.20
2023-04-19T02:33:54.664Z,13.20
2023-04-19T02:36:22.709Z,13.20
2023-04-19T02:38:50.784Z,13.20
2023-04-19T02:41:21.467Z,13.10
2023-04-19T02:43:49.447Z,13.10
2023-04-19T02:46:17.511Z,13.10
2023-04-19T02:48:45.516Z,13.10
2023-04-19T02:51:17.715Z,13.10
2023-04-19T02:53:45.956Z,13.10
2023-04-19T02:56:13.949Z,13.10
2023-04-19T02:58:42.011Z,13.00
2023-04-19T03:01:11.013Z,13.00
2023-04-19T03:03:39.257Z,13.00
2023-04-19T03:06:07.628Z,12.90
2023-04-19T03:08:37.392Z,12.90
2023-04-19T03:11:05.491Z,12.90
2023-04-19T03:13:33.426Z,12.90
2023-04-19T03:16:01.404Z,12.90
2023-04-19T03:18:31.829Z,12.90
2023-04-19T03:21:01.179Z,12.80
2023-04-19T03:23:33.670Z,12.90
2023-04-19T03:26:04.673Z,12.90
2023-04-19T03:28:41.220Z,12.90
2023-04-19T03:31:24.256Z,12.90
2023-04-19T03:33:54.447Z,12.90
2023-04-19T03:36:27.831Z,12.90
2023-04-19T03:38:55.858Z,12.80
2023-04-19T03:41:26.936Z,12.80
2023-04-19T03:44:32.851Z,12.80
2023-04-19T03:47:02.784Z,12.80
2023-04-19T03:49:35.535Z,12.80
2023-04-19T03:52:06.534Z,12.80
2023-04-19T03:54:36.115Z,12.80
2023-04-19T03:57:07.494Z,12.80
2023-04-19T03:59:39.262Z,12.80
2023-04-19T04:02:07.601Z,12.70
2023-04-19T04:04:36.143Z,12.70
2023-04-19T04:07:04.291Z,12.70
2023-04-19T04:09:32.843Z,12.60
2023-04-19T04:12:00.814Z,12.60
2023-04-19T04:14:30.695Z,12.60
2023-04-19T04:17:00.424Z,12.60
2023-04-19T04:19:28.389Z,12.60
2023-04-19T04:21:56.618Z,12.60
2023-04-19T04:24:26.147Z,12.60
2023-04-19T04:27:21.484Z,12.70
2023-04-19T04:29:52.465Z,12.70
2023-04-19T04:32:23.199Z,12.70
2023-04-19T04:34:55.699Z,12.70
2023-04-19T04:37:34.965Z,12.70
2023-04-19T04:40:05.128Z,12.70
2023-04-19T04:42:34.468Z,12.60
2023-04-19T04:45:05.655Z,12.60
2023-04-19T04:47:35.753Z,12.60
2023-04-19T04:50:07.715Z,12.70
2023-04-19T04:52:35.706Z,12.60
2023-04-19T04:55:13.310Z,12.70
2023-04-19T04:57:44.732Z,12.70
2023-04-19T05:00:23.782Z,12.60
2023-04-19T05:02:59.528Z,12.60
2023-04-19T05:05:27.778Z,12.60
2023-04-19T05:07:56.996Z,12.70
2023-04-19T05:10:25.030Z,12.60
2023-04-19T05:12:54.119Z,12.60
2023-04-19T05:15:24.045Z,12.60
2023-04-19T05:17:55.574Z,12.60
2023-04-19T05:20:23.946Z,12.60
2023-04-19T05:23:01.895Z,12.60
2023-04-19T05:25:31.676Z,12.60
2023-04-19T05:28:00.573Z,12.60
2023-04-19T05:30:37.158Z,12.60
2023-04-19T05:33:06.334Z,12.60
2023-04-19T05:35:34.463Z,12.60
2023-04-19T05:38:02.843Z,12.60
2023-04-19T05:40:30.918Z,12.60
2023-04-19T05:43:00.029Z,12.60
2023-04-19T05:45:28.142Z,12.60
2023-04-19T05:47:57.685Z,12.60
2023-04-19T05:50:44.125Z,12.60
2023-04-19T05:53:32.960Z,12.60
2023-04-19T05:56:00.913Z,12.60
2023-04-19T05:58:28.875Z,12.60
2023-04-19T06:00:56.919Z,12.60
2023-04-19T06:03:28.883Z,12.60
2023-04-19T06:06:00.446Z,12.60
2023-04-19T06:08:28.577Z,12.60
2023-04-19T06:11:02.087Z,12.70
2023-04-19T06:13:36.336Z,12.60
2023-04-19T06:16:04.623Z,12.60
2023-04-19T06:18:35.198Z,12.60
2023-04-19T06:21:03.235Z,12.60
2023-04-19T06:23:31.178Z,12.50
2023-04-19T06:25:59.141Z,12.60
2023-04-19T06:28:27.090Z,12.60
2023-04-19T06:30:55.064Z,12.60
2023-04-19T06:33:23.028Z,12.60
2023-04-19T06:35:52.332Z,12.70
2023-04-19T06:38:20.290Z,12.60
2023-04-19T06:40:48.295Z,12.60
2023-04-19T06:43:16.275Z,12.70
2023-04-19T06:45:44.318Z,12.70
2023-04-19T06:48:12.520Z,12.60
2023-04-19T06:50:40.553Z,12.70
2023-04-19T06:53:09.929Z,12.70
2023-04-19T06:55:37.984Z,12.80
2023-04-19T06:58:07.784Z,12.70
2023-04-19T07:00:36.000Z,12.70
2023-04-19T07:03:04.457Z,12.70
2023-04-19T07:05:32.833Z,12.80
2023-04-19T07:08:00.827Z,12.80
2023-04-19T07:10:30.237Z,12.80
2023-04-19T07:12:58.211Z,12.80
2023-04-19T07:15:26.236Z,12.90
2023-04-19T07:17:54.340Z,13.00
2023-04-19T07:20:22.643Z,13.00
2023-04-19T07:22:50.681Z,13.10
2023-04-19T07:25:18.895Z,13.20
2023-04-19T07:27:48.244Z,13.30
2023-04-19T07:30:16.219Z,13.40
2023-04-19T07:32:44.472Z,13.50
2023-04-19T07:35:12.765Z,13.60
2023-04-19T07:37:40.791Z,13.60
2023-04-19T07:40:10.019Z,13.60
2023-04-19T07:42:38.064Z,13.50
2023-04-19T07:45:08.912Z,13.50
2023-04-19T07:47:36.918Z,13.60
2023-04-19T07:50:07.533Z,13.60
2023-04-19T07:52:35.547Z,13.50
2023-04-19T07:55:03.616Z,13.50
2023-04-19T07:57:31.746Z,13.40
2023-04-19T07:59:59.703Z,13.50
2023-04-19T08:02:29.347Z,13.60
2023-04-19T08:04:57.897Z,13.60
2023-04-19T08:07:26.236Z,13.50
2023-04-19T08:09:54.389Z,13.60
2023-04-19T08:12:36.240Z,13.60
2023-04-19T08:15:29.629Z,13.60
2023-04-19T08:17:59.030Z,13.60
2023-04-19T08:20:27.323Z,13.70
2023-04-19T08:22:55.657Z,13.80
2023-04-19T08:25:26.737Z,13.90
2023-04-19T08:27:54.818Z,14.00
2023-04-19T08:30:22.964Z,14.10
2023-04-19T08:32:51.115Z,14.10
2023-04-19T08:35:21.351Z,14.20
2023-04-19T08:37:50.342Z,14.30
2023-04-19T08:40:18.531Z,14.30
2023-04-19T08:42:46.607Z,14.40
2023-04-19T08:45:27.816Z,14.30
2023-04-19T08:48:01.378Z,14.40
2023-04-19T08:50:38.928Z,14.40
2023-04-19T08:53:23.934Z,14.40
2023-04-19T08:56:08.782Z,14.40
2023-04-19T08:59:00.318Z,14.50
2023-04-19T09:01:34.822Z,14.50
2023-04-19T09:04:26.197Z,14.60
2023-04-19T09:06:55.628Z,14.60
2023-04-19T09:09:35.405Z,14.60
2023-04-19T09:12:17.599Z,14.60
2023-04-19T09:15:00.731Z,14.70
2023-04-19T09:17:30.277Z,14.70
2023-04-19T09:19:59.188Z,14.70
2023-04-19T09:22:28.799Z,14.80
2023-04-19T09:27:29.808Z,14.80
2023-04-19T09:29:58.649Z,14.80
2023-04-19T09:32:27.548Z,14.80
2023-04-19T09:34:56.967Z,14.80
2023-04-19T09:39:58.867Z,14.70
2023-04-19T09:48:02.315Z,14.70
2023-04-19T09:50:31.707Z,14.70
2023-04-19T09:53:01.223Z,14.70
2023-04-19T09:55:38.382Z,14.70
2023-04-19T09:58:13.351Z,14.60
2023-04-19T10:00:48.914Z,14.70
2023-04-19T10:03:20.113Z,14.70
2023-04-19T10:05:48.551Z,14.70
2023-04-19T10:08:18.077Z,14.60
2023-04-19T10:10:49.225Z,14.70
2023-04-19T10:13:25.786Z,14.70
2023-04-19T10:15:59.322Z,14.80
2023-04-19T10:18:33.506Z,14.80
2023-04-19T10:21:07.126Z,14.70
2023-04-19T10:23:35.763Z,14.80
2023-04-19T10:26:07.274Z,14.90
2023-04-19T10:28:37.884Z,14.80
2023-04-19T10:31:06.537Z,14.90
2023-04-19T10:33:37.356Z,14.90
2023-04-19T10:36:09.405Z,15.00
2023-04-19T10:38:38.891Z,15.00
2023-04-19T10:41:16.982Z,15.00
2023-04-19T10:43:47.537Z,15.10
2023-04-19T10:46:32.657Z,15.10
2023-04-19T10:49:01.952Z,15.10
2023-04-19T10:51:33.650Z,15.20
2023-04-19T10:54:03.305Z,15.20
2023-04-19T10:57:02.335Z,15.10
2023-04-19T10:59:31.859Z,15.10
2023-04-19T11:02:01.931Z,15.20
2023-04-19T11:04:59.200Z,15.30
2023-04-19T11:07:27.367Z,15.30
2023-04-19T11:09:55.418Z,15.40
2023-04-19T11:12:24.769Z,15.30
2023-04-19T11:14:53.877Z,15.30
2023-04-19T11:17:25.798Z,15.30
2023-04-19T11:19:58.077Z,15.40
2023-04-19T11:22:27.861Z,15.50
2023-04-19T11:24:55.844Z,15.50
2023-04-19T11:27:25.724Z,15.50
2023-04-19T11:29:53.736Z,15.50
2023-04-19T11:32:23.425Z,15.50
2023-04-19T11:34:51.928Z,15.50
2023-04-19T11:37:20.064Z,15.50
2023-04-19T11:39:48.385Z,15.60
2023-04-19T11:42:20.769Z,15.60
2023-04-19T11:44:53.954Z,15.70
2023-04-19T11:47:22.105Z,15.80
2023-04-19T11:49:50.284Z,15.80
2023-04-19T11:52:23.479Z,15.90
2023-04-19T11:54:52.526Z,16.00
2023-04-19T11:57:30.629Z,15.80
2023-04-19T12:00:10.913Z,15.80
2023-04-19T12:02:43.998Z,15.70
2023-04-19T12:05:13.892Z,15.80
2023-04-19T12:08:00.930Z,15.80
2023-04-19T12:10:28.945Z,15.90
2023-04-19T12:12:56.920Z,15.90
2023-04-19T12:15:42.218Z,15.90
2023-04-19T12:18:10.359Z,16.10
2023-04-19T12:20:39.445Z,16.10
2023-04-19T12:23:11.120Z,16.10
2023-04-19T12:25:39.189Z,16.00
2023-04-19T12:28:07.356Z,15.90
2023-04-19T12:30:37.157Z,15.90
2023-04-19T12:33:05.605Z,15.70
2023-04-19T12:35:34.028Z,15.80
2023-04-19T12:38:02.725Z,15.90
2023-04-19T12:40:32.555Z,15.90
2023-04-19T12:43:00.568Z,15.90
2023-04-19T12:45:28.862Z,16.00
2023-04-19T12:47:58.241Z,16.10
2023-04-19T12:50:26.352Z,16.10
2023-04-19T12:52:54.427Z,16.30
2023-04-19T12:55:22.449Z,16.50
2023-04-19T12:57:50.444Z,16.60
2023-04-19T13:00:19.302Z,16.50
2023-04-19T13:02:48.511Z,16.30
2023-04-19T13:05:18.094Z,16.30
2023-04-19T13:07:46.091Z,16.50
2023-04-19T13:10:14.121Z,16.60
2023-04-19T13:12:42.186Z,16.70
2023-04-19T13:15:11.425Z,16.70
2023-04-19T13:17:39.514Z,16.80
2023-04-19T13:20:09.485Z,16.90
2023-04-19T13:22:39.017Z,17.10
2023-04-19T13:25:07.891Z,17.50
2023-04-19T13:27:35.935Z,17.50
2023-04-19T13:30:04.307Z,17.50
2023-04-19T13:32:32.445Z,17.60
2023-04-19T13:35:00.611Z,17.70
2023-04-19T13:37:28.699Z,17.70
2023-04-19T13:40:10.597Z,17.80
2023-04-19T13:42:43.302Z,17.90
2023-04-19T13:45:11.888Z,17.80
2023-04-19T13:47:39.956Z,17.70
2023-04-19T13:50:09.162Z,18.00
2023-04-19T13:52:37.297Z,18.00
2023-04-19T13:55:07.186Z,18.00
2023-04-19T13:57:35.447Z,18.10
2023-04-19T14:00:03.615Z,18.30
2023-04-19T14:02:35.430Z,18.60
2023-04-19T14:05:04.576Z,18.60
2023-04-19T14:07:32.646Z,18.70
2023-04-19T14:10:00.650Z,18.70
2023-04-19T14:12:31.064Z,18.80
2023-04-19T14:14:59.067Z,18.90
2023-04-19T14:17:27.471Z,18.90
2023-04-19T14:19:56.132Z,18.80
2023-04-19T14:22:24.187Z,18.80
2023-04-19T14:24:52.186Z,18.60
2023-04-19T14:27:20.227Z,18.50
2023-04-19T14:29:49.595Z,18.50
2023-04-19T14:32:26.201Z,18.50
2023-04-19T14:34:55.459Z,18.40
2023-04-19T14:37:24.193Z,18.80
2023-04-19T14:39:52.553Z,19.00
2023-04-19T14:42:22.666Z,19.30
2023-04-19T14:44:53.294Z,19.50
2023-04-19T14:47:22.063Z,19.70
2023-04-19T14:49:50.559Z,19.80
2023-04-19T14:52:18.801Z,19.90
2023-04-19T14:54:46.800Z,19.90
2023-04-19T14:57:15.041Z,19.90
2023-04-19T14:59:43.106Z,19.70
2023-04-19T15:02:13.437Z,19.60
2023-04-19T15:04:42.363Z,19.60
2023-04-19T15:07:10.768Z,19.80
2023-04-19T15:09:38.764Z,20.30
2023-04-19T15:12:06.831Z,20.30
2023-04-19T15:14:36.886Z,20.60
2023-04-19T15:17:05.018Z,20.60
2023-04-19T15:19:36.533Z,20.20
2023-04-19T15:22:04.943Z,20.40
2023-04-19T15:24:35.191Z,20.80
2023-04-19T15:27:04.030Z,20.90
2023-04-19T15:29:32.079Z,21.00
2023-04-19T15:32:00.061Z,21.00
2023-04-19T15:34:28.148Z,20.60
2023-04-19T15:36:57.500Z,20.40
2023-04-19T15:39:26.108Z,20.10
2023-04-19T15:41:54.116Z,19.60
2023-04-19T15:44:22.094Z,18.80
2023-04-19T15:46:50.250Z,18.30
2023-04-19T15:49:18.840Z,17.90
2023-04-19T15:51:47.082Z,17.80
2023-04-19T15:54:16.479Z,17.60
2023-04-19T15:56:44.457Z,17.50
2023-04-19T15:59:12.464Z,17.30
2023-04-19T16:01:40.439Z,17.20
2023-04-19T16:04:08.777Z,17.20
2023-04-19T16:06:36.933Z,17.20
2023-04-19T16:09:05.720Z,17.10
2023-04-19T16:11:35.170Z,17.20
2023-04-19T16:14:03.154Z,17.10
2023-04-19T16:16:34.165Z,17.10
2023-04-19T16:19:02.478Z,17.10
2023-04-19T16:21:31.502Z,17.10
2023-04-19T16:24:00.762Z,17.00
2023-04-19T16:26:28.965Z,16.90
2023-04-19T16:28:59.379Z,16.80
2023-04-19T16:31:27.569Z,16.70
2023-04-19T16:33:55.638Z,16.60
2023-04-19T16:36:23.601Z,16.50
2023-04-19T16:38:51.721Z,16.40
2023-04-19T16:41:19.706Z,16.40
2023-04-19T16:43:47.633Z,16.40
2023-04-19T16:46:17.028Z,16.30
2023-04-19T16:48:45.074Z,16.30
2023-04-19T16:51:13.076Z,16.40
2023-04-19T16:53:42.192Z,16.20
2023-04-19T16:56:10.148Z,16.20
2023-04-19T16:58:38.187Z,16.20
2023-04-19T17:01:06.462Z,16.20
2023-04-19T17:03:37.760Z,16.10
2023-04-19T17:06:06.976Z,16.10
2023-04-19T17:08:35.194Z,16.20
2023-04-19T17:11:03.401Z,16.20
2023-04-19T17:13:31.452Z,16.20
2023-04-19T17:15:59.473Z,16.20
2023-04-19T17:18:27.580Z,16.20
2023-04-19T17:20:56.962Z,16.10
2023-04-19T17:23:25.094Z,16.10
2023-04-19T17:25:53.124Z,16.10
2023-04-19T17:28:21.134Z,16.00
2023-04-19T17:30:49.107Z,15.90
2023-04-19T17:33:17.093Z,15.90
2023-04-19T17:35:45.107Z,15.90
2023-04-19T17:38:14.437Z,15.90
2023-04-19T17:40:42.399Z,16.00
2023-04-19T17:43:11.150Z,15.90
2023-04-19T17:45:39.180Z,15.90
2023-04-19T17:48:07.544Z,15.90
2023-04-19T17:50:35.888Z,15.80
2023-04-19T17:53:03.872Z,15.70
2023-04-19T17:55:33.680Z,15.60
2023-04-19T17:58:01.638Z,15.50
2023-04-19T18:00:29.586Z,15.40
2023-04-19T18:02:57.776Z,15.40
2023-04-19T18:05:26.165Z,15.40
2023-04-19T18:07:54.810Z,15.40
2023-04-19T18:10:22.785Z,15.40
2023-04-19T18:12:52.151Z,15.30
2023-04-19T18:15:20.215Z,15.30
2023-04-19T18:17:48.996Z,15.20
2023-04-19T18:20:17.367Z,15.10
2023-04-19T18:22:48.574Z,15.10
2023-04-19T18:25:16.588Z,15.00
2023-04-19T18:27:44.728Z,14.90
2023-04-19T18:30:14.604Z,14.90
2023-04-19T18:32:42.627Z,14.90
2023-04-19T18:35:11.863Z,14.90
2023-04-19T18:37:39.992Z,14.90
2023-04-19T18:40:09.350Z,14.90
2023-04-19T18:42:37.416Z,14.80
2023-04-19T18:45:06.129Z,14.70
2023-04-19T18:47:35.699Z,14.70
2023-04-19T18:50:06.308Z,14.60
2023-04-19T18:52:36.158Z,14.60
2023-04-19T18:55:04.829Z,14.50
2023-04-19T18:57:34.497Z,14.40
2023-04-19T19:00:05.232Z,14.30
2023-04-19T19:02:36.788Z,14.30
2023-04-19T19:05:07.508Z,14.20
2023-04-19T19:07:37.770Z,14.20
2023-04-19T19:12:40.712Z,14.20
2023-04-19T19:15:09.823Z,14.10
2023-04-19T19:17:39.238Z,14.10
2023-04-19T19:20:09.797Z,14.10
2023-04-19T19:22:37.824Z,14.00
2023-04-19T19:25:06.968Z,14.00
2023-04-19T19:27:35.438Z,13.90
2023-04-19T19:30:04.707Z,13.90
2023-04-19T19:32:32.920Z,13.80
2023-04-19T19:35:06.226Z,13.90
2023-04-19T19:37:36.532Z,13.80
2023-04-19T19:40:07.271Z,13.70
2023-04-19T19:42:35.885Z,13.70
2023-04-19T19:45:04.600Z,13.70
2023-04-19T19:47:35.428Z,13.60
2023-04-19T19:52:38.146Z,13.50
2023-04-19T19:55:08.365Z,13.50
2023-04-19T20:00:42.813Z,13.40
2023-04-19T20:03:13.298Z,13.40
2023-04-19T20:05:43.490Z,13.30
2023-04-19T20:08:13.312Z,13.20
2023-04-19T20:10:43.461Z,13.20
2023-04-19T20:13:13.181Z,13.20
2023-04-19T20:15:41.880Z,13.20
2023-04-19T20:18:09.943Z,13.20
2023-04-19T20:20:38.154Z,13.10
2023-04-19T20:23:07.618Z,13.00
2023-04-19T20:25:35.626Z,13.00
2023-04-19T20:28:04.769Z,13.00
2023-04-19T20:30:32.852Z,13.00
2023-04-19T20:33:01.124Z,13.00
2023-04-19T20:35:29.499Z,12.90
2023-04-19T20:38:02.440Z,12.90
2023-04-19T20:40:33.070Z,12.90
2023-04-19T20:43:01.097Z,12.90
2023-04-19T20:45:29.764Z,12.80
2023-04-19T20:47:58.378Z,12.80
2023-04-19T20:50:26.985Z,12.70
2023-04-19T20:52:55.031Z,12.70
2023-04-19T20:55:23.130Z,12.70
2023-04-19T20:57:52.562Z,12.60
2023-04-19T21:00:20.778Z,12.60
2023-04-19T21:02:49.480Z,12.60
2023-04-19T21:05:17.701Z,12.60
2023-04-19T21:07:45.831Z,12.50
2023-04-19T21:10:13.945Z,12.40
2023-04-19T21:12:42.029Z,12.40
2023-04-19T21:15:12.190Z,12.40
2023-04-19T21:17:40.544Z,12.30
2023-04-19T21:20:12.400Z,12.30
2023-04-19T21:22:40.796Z,12.30
2023-04-19T21:25:10.642Z,12.30
2023-04-19T21:27:38.941Z,12.20
2023-04-19T21:30:08.002Z,12.20
2023-04-19T21:32:37.465Z,12.10
2023-04-19T21:35:05.994Z,12.10
2023-04-19T21:37:34.222Z,12.10
2023-04-19T21:40:02.152Z,12.00
2023-04-19T21:42:30.122Z,12.00
2023-04-19T21:44:58.451Z,11.90
2023-04-19T21:47:27.532Z,11.90
2023-04-19T21:49:56.981Z,11.90
2023-04-19T21:52:24.968Z,11.80
2023-04-19T21:54:52.955Z,11.80
2023-04-19T21:57:22.079Z,11.80
2023-04-19T21:59:50.087Z,11.80
2023-04-19T22:02:18.347Z,11.80
2023-04-19T22:04:46.594Z,11.80
2023-04-19T22:07:18.780Z,11.70
2023-04-19T22:09:46.916Z,11.70
2023-04-19T22:12:14.894Z,11.70
2023-04-19T22:14:42.908Z,11.60
2023-04-19T22:17:12.454Z,11.50
2023-04-19T22:19:40.490Z,11.50
2023-04-19T22:22:08.456Z,11.50
2023-04-19T22:24:46.748Z,11.50
2023-04-19T22:27:24.075Z,11.50
2023-04-19T22:29:52.048Z,11.50
2023-04-19T22:32:20.180Z,11.40
2023-04-19T22:34:48.309Z,11.40
2023-04-19T22:37:16.297Z,11.30
2023-04-19T22:39:45.613Z,11.20
2023-04-19T22:42:13.588Z,11.20
2023-04-19T22:44:41.532Z,11.10
2023-04-19T22:47:09.486Z,11.10
2023-04-19T22:49:37.436Z,11.10
2023-04-19T22:52:06.332Z,11.10
2023-04-19T22:54:34.279Z,11.10
2023-04-19T22:57:03.861Z,11.10
2023-04-19T22:59:31.870Z,11.10
2023-04-19T23:01:59.875Z,11.10
2023-04-19T23:04:28.060Z,11.00
2023-04-19T23:06:56.218Z,11.00
2023-04-19T23:09:24.186Z,11.00
2023-04-19T23:11:52.131Z,11.00
2023-04-19T23:14:22.091Z,11.00
2023-04-19T23:16:50.048Z,10.90
2023-04-19T23:19:18.203Z,10.90
2023-04-19T23:21:46.440Z,10.90
2023-04-19T23:24:14.428Z,10.90
2023-04-19T23:26:42.434Z,10.90
2023-04-19T23:29:10.505Z,10.80
2023-04-19T23:31:39.936Z,10.80
2023-04-19T23:34:07.977Z,10.80
2023-04-19T23:36:35.922Z,10.70
2023-04-19T23:39:05.006Z,10.60
2023-04-19T23:41:33.054Z,10.60
2023-04-19T23:44:01.096Z,10.60
2023-04-19T23:46:29.125Z,10.70
2023-04-19T23:48:58.536Z,10.60
2023-04-19T23:51:26.502Z,10.60
2023-04-19T23:53:54.539Z,10.60
2023-04-19T23:56:22.467Z,10.60
2023-04-19T23:58:50.452Z,10.60
